Time;durP1;ratioP1;P1;durP2;ratioP2;P2;SDS_P1;SDS_P2;PMS_P1;PMS_P2;Temp;Humidity;BMP_temperature;BMP_pressure;BME280_temperature;BME280_humidity;BME280_pressure;Samples;Min_cycle;Max_cycle;Signal;HPM_P1;HPM_P2
2021/11/24 00:01:34;;;;;;;;;;;21.80;76.40;;;;;;4996762;28;96790;-50
2021/11/24 00:04:08;;;;;;;3.33;2.28;;;21.90;76.30;;;;;;4991003;28;95818;-52
2021/11/24 00:06:40;;;;;;;6.03;2.70;;;22.00;76.30;;;;;;4996201;28;96574;-57
2021/11/24 00:09:13;;;;;;;5.68;3.38;;;22.00;76.30;;;;;;4997412;28;96808;-59
2021/11/24 00:11:44;;;;;;;4.80;3.05;;;22.10;76.10;;;;;;4980229;28;96595;-59
2021/11/24 00:14:16;;;;;;;5.25;3.42;;;22.10;75.90;;;;;;4996013;28;96442;-59
2021/11/24 00:16:50;;;;;;;5.07;2.58;;;22.20;75.70;;;;;;4996304;28;97599;-55
2021/11/24 00:19:22;;;;;;;5.38;3.20;;;22.30;75.60;;;;;;4996413;28;95874;-58
2021/11/24 00:21:52;;;;;;;6.20;3.00;;;22.30;75.40;;;;;;4995369;28;96385;-60
2021/11/24 00:24:24;;;;;;;4.07;2.60;;;22.40;75.30;;;;;;4995424;28;96412;-58
2021/11/24 00:26:57;;;;;;;3.58;2.60;;;22.50;75.10;;;;;;4992899;28;95735;-57
2021/11/24 00:29:30;;;;;;;2.53;2.22;;;22.50;75.10;;;;;;5000593;28;95685;-55
2021/11/24 00:32:01;;;;;;;2.85;2.55;;;22.60;75.00;;;;;;4995263;28;96460;-57
2021/11/24 00:34:33;;;;;;;4.20;2.72;;;22.60;74.80;;;;;;4994898;28;95993;-53
2021/11/24 00:37:05;;;;;;;3.67;2.72;;;22.60;74.80;;;;;;4974722;28;96036;-59
2021/11/24 00:39:55;;;;;;;2.58;2.38;;;22.70;74.70;;;;;;4996690;28;95964;-56
2021/11/24 00:42:26;;;;;;;6.13;2.90;;;22.90;74.70;;;;;;4990293;28;96401;-56
2021/11/24 00:44:56;;;;;;;2.90;2.40;;;23.00;74.20;;;;;;4996027;28;95842;-54
2021/11/24 00:47:26;;;;;;;5.50;2.50;;;23.00;74.00;;;;;;4996398;28;95807;-56
2021/11/24 00:49:58;;;;;;;3.00;2.27;;;23.10;74.00;;;;;;4998830;28;96332;-56
2021/11/24 00:52:31;;;;;;;3.20;2.17;;;23.20;73.90;;;;;;4996346;28;97069;-56
2021/11/24 00:55:01;;;;;;;2.88;2.42;;;23.40;73.60;;;;;;4978535;28;96684;-57
2021/11/24 00:57:31;;;;;;;3.43;2.33;;;23.50;73.50;;;;;;4994622;28;96425;-53
2021/11/24 01:00:03;;;;;;;2.70;2.17;;;23.60;73.00;;;;;;4995373;28;95565;-55
2021/11/24 01:02:35;;;;;;;2.47;1.83;;;23.70;72.80;;;;;;4990530;28;96604;-54
2021/11/24 01:05:07;;;;;;;4.03;2.13;;;23.90;72.70;;;;;;4997613;28;95893;-56
2021/11/24 01:07:38;;;;;;;2.60;1.98;;;24.00;72.40;;;;;;5004682;28;95813;-57
2021/11/24 01:10:10;;;;;;;1.98;1.73;;;24.10;72.20;;;;;;4999238;28;95681;-53
2021/11/24 01:12:43;;;;;;;2.88;1.98;;;24.20;71.90;;;;;;4986595;28;97154;-53
2021/11/24 01:15:15;;;;;;;2.47;2.00;;;24.30;71.80;;;;;;5002014;28;95862;-56
2021/11/24 01:17:46;;;;;;;2.65;1.88;;;24.30;71.70;;;;;;5004756;28;95633;-55
2021/11/24 01:20:17;;;;;;;3.55;2.05;;;24.30;71.60;;;;;;5000740;28;96218;-56
2021/11/24 01:22:48;;;;;;;2.58;2.00;;;24.40;71.60;;;;;;5001507;28;96117;-58
2021/11/24 01:25:20;;;;;;;;;;;24.50;72.30;;;;;;5005052;28;95970;-52
2021/11/24 01:27:51;;;;;;;2.08;1.70;;;24.60;72.00;;;;;;4971582;28;95594;-53
2021/11/24 01:30:23;;;;;;;2.88;1.80;;;24.80;71.70;;;;;;4993281;28;95955;-55
2021/11/24 01:32:55;;;;;;;1.58;1.48;;;24.90;71.60;;;;;;4994875;28;96978;-55
2021/11/24 01:35:27;;;;;;;1.83;1.65;;;25.10;71.30;;;;;;4987513;28;95838;-56
2021/11/24 01:37:59;;;;;;;2.20;2.00;;;25.20;71.00;;;;;;4977723;28;96393;-57
2021/11/24 01:40:30;;;;;;;1.92;1.50;;;25.30;70.80;;;;;;4984697;28;95801;-55
2021/11/24 01:43:02;;;;;;;2.08;1.75;;;25.50;69.70;;;;;;4987420;28;97248;-57
2021/11/24 01:45:32;;;;;;;2.78;1.55;;;25.50;70.50;;;;;;4978013;28;96090;-53
2021/11/24 01:48:02;;;;;;;1.90;1.30;;;25.70;70.20;;;;;;4987653;28;96058;-57
2021/11/24 01:50:34;;;;;;;2.88;1.55;;;25.70;70.20;;;;;;4996259;28;95822;-55
2021/11/24 01:53:07;;;;;;;2.08;1.58;;;25.80;70.20;;;;;;4995415;28;96813;-58
2021/11/24 01:55:37;;;;;;;1.42;1.33;;;26.00;69.90;;;;;;5000256;28;97032;-55
2021/11/24 01:58:08;;;;;;;2.17;1.67;;;26.00;69.50;;;;;;5010365;28;96304;-51
2021/11/24 02:00:40;;;;;;;3.97;2.05;;;25.90;68.30;;;;;;5006116;28;97393;-52
2021/11/24 02:03:12;;;;;;;5.00;2.22;;;25.30;68.50;;;;;;5000841;28;97791;-49
2021/11/24 02:05:44;;;;;;;4.97;3.15;;;25.10;69.30;;;;;;5000369;28;96363;-54
2021/11/24 02:08:16;;;;;;;5.22;3.05;;;25.00;70.00;;;;;;5005613;28;96611;-57
2021/11/24 02:10:46;;;;;;;3.65;2.53;;;25.00;69.60;;;;;;5006159;28;97292;-59
2021/11/24 02:13:17;;;;;;;;;;;25.00;69.30;;;;;;4998515;28;98487;-58
2021/11/24 02:15:49;;;;;;;9.60;2.40;;;24.90;69.10;;;;;;5003778;28;95896;-59
2021/11/24 02:18:21;;;;;;;4.57;2.78;;;24.90;69.10;;;;;;4995540;28;95970;-57
2021/11/24 02:20:52;;;;;;;3.63;2.28;;;24.80;69.30;;;;;;5003112;28;95977;-60
2021/11/24 02:23:22;;;;;;;;;;;24.80;68.80;;;;;;4999010;28;96165;-60
2021/11/24 02:25:53;;;;;;;2.97;1.98;;;24.80;69.00;;;;;;5001478;28;96129;-54
2021/11/24 02:28:26;;;;;;;1.65;1.40;;;24.80;68.90;;;;;;5003595;28;97954;-58
2021/11/24 02:30:57;;;;;;;2.65;2.00;;;24.70;68.60;;;;;;4998622;28;95394;-59
2021/11/24 02:33:29;;;;;;;2.35;1.63;;;24.70;68.70;;;;;;4981868;28;97008;-58
2021/11/24 02:36:00;;;;;;;4.15;1.90;;;24.70;68.80;;;;;;4993175;28;95417;-58
2021/11/24 02:38:31;;;;;;;2.78;1.92;;;24.70;68.90;;;;;;4991309;28;96096;-59
2021/11/24 02:41:03;;;;;;;2.83;1.65;;;24.70;69.00;;;;;;5007691;28;95738;-57
2021/11/24 02:43:33;;;;;;;3.95;2.53;;;24.60;68.60;;;;;;5006940;28;96679;-58
2021/11/24 02:46:04;;;;;;;7.00;1.93;;;24.60;68.30;;;;;;4998141;28;95853;-58
2021/11/24 02:48:39;;;;;;;5.43;2.55;;;24.60;68.60;;;;;;4998055;28;96067;-59
2021/11/24 02:51:10;;;;;;;3.58;2.05;;;24.60;68.50;;;;;;4990683;28;96546;-61
2021/11/24 02:53:43;;;;;;;6.60;1.67;;;24.60;68.70;;;;;;4991790;28;96041;-60
2021/11/24 02:56:13;;;;;;;3.17;1.85;;;24.60;69.10;;;;;;4999507;28;96582;-59
2021/11/24 02:58:43;;;;;;;6.03;2.13;;;24.60;69.00;;;;;;4995822;28;95790;-60
2021/11/24 03:01:13;;;;;;;2.47;1.57;;;24.50;69.00;;;;;;5008198;28;95860;-60
2021/11/24 03:03:44;;;;;;;3.30;1.60;;;24.60;69.30;;;;;;5001340;28;96054;-58
2021/11/24 03:06:16;;;;;;;;;;;24.60;69.80;;;;;;5005231;28;96415;-60
2021/11/24 03:08:48;;;;;;;1.58;1.45;;;24.70;70.00;;;;;;5005067;28;95933;-59
2021/11/24 03:11:19;;;;;;;3.45;2.13;;;24.70;70.00;;;;;;4995244;28;97061;-63
2021/11/24 03:13:50;;;;;;;1.98;1.77;;;24.80;70.20;;;;;;4997787;28;96093;-61
2021/11/24 03:16:23;;;;;;;5.05;1.58;;;24.90;69.80;;;;;;5003773;28;95989;-57
2021/11/24 03:18:54;;;;;;;2.70;1.70;;;25.00;69.40;;;;;;5006325;28;95231;-63
2021/11/24 03:21:26;;;;;;;2.65;1.58;;;25.10;69.40;;;;;;5006768;28;95899;-49
2021/11/24 03:23:58;;;;;;;3.92;1.77;;;25.10;69.40;;;;;;5007415;28;95994;-65
2021/11/24 03:26:30;;;;;;;2.65;1.40;;;25.20;69.70;;;;;;5006097;28;95516;-64
2021/11/24 03:29:02;;;;;;;1.95;1.45;;;25.30;69.60;;;;;;5006209;28;96350;-59
2021/11/24 03:31:33;;;;;;;4.63;1.45;;;25.40;69.80;;;;;;5005753;28;96123;-60
2021/11/24 03:34:06;;;;;;;2.28;1.35;;;25.50;69.80;;;;;;4991090;28;96150;-59
2021/11/24 03:36:39;;;;;;;1.52;1.33;;;25.50;69.80;;;;;;4984859;28;96382;-55
2021/11/24 03:39:10;;;;;;;2.28;1.77;;;25.40;67.20;;;;;;4998552;28;95892;-56
2021/11/24 03:41:41;;;;;;;2.63;1.15;;;25.10;65.70;;;;;;5005373;28;96000;-56
2021/11/24 03:44:11;;;;;;;3.47;1.43;;;24.80;64.90;;;;;;5004750;28;97064;-47
2021/11/24 03:46:42;;;;;;;1.23;1.13;;;24.80;64.80;;;;;;4999592;28;95564;-45
2021/11/24 03:49:13;;;;;;;3.50;1.50;;;24.80;64.90;;;;;;5007905;28;95919;-45
2021/11/24 03:51:44;;;;;;;2.88;1.45;;;24.80;64.30;;;;;;4987398;28;95767;-59
2021/11/24 03:54:15;;;;;;;2.42;1.25;;;24.70;63.10;;;;;;5003028;28;97088;-55
2021/11/24 03:56:48;;;;;;;2.17;1.35;;;24.70;63.10;;;;;;5006581;28;95910;-58
2021/11/24 03:59:19;;;;;;;3.92;1.50;;;24.60;62.40;;;;;;5003056;28;95690;-60
2021/11/24 04:01:50;;;;;;;1.65;1.27;;;24.60;62.10;;;;;;5002639;28;95953;-57
2021/11/24 04:04:22;;;;;;;2.00;1.63;;;24.60;61.40;;;;;;4998141;28;96767;-54
2021/11/24 04:06:53;;;;;;;2.88;2.50;;;24.60;61.10;;;;;;4995500;28;96473;-60
2021/11/24 04:09:27;;;;;;;3.33;2.15;;;24.60;60.70;;;;;;5005566;28;95371;-59
2021/11/24 04:11:59;;;;;;;3.75;2.30;;;24.60;60.50;;;;;;5006429;28;95854;-55
2021/11/24 04:14:35;;;;;;;4.22;2.58;;;24.60;60.30;;;;;;5001733;28;95833;-61
2021/11/24 04:17:09;;;;;;;2.85;2.65;;;24.50;59.90;;;;;;5003682;28;95870;-57
2021/11/24 04:19:40;;;;;;;3.65;2.63;;;24.50;59.60;;;;;;5005700;28;95957;-56
2021/11/24 04:22:10;;;;;;;4.13;2.38;;;24.50;59.70;;;;;;5003822;28;95747;-60
2021/11/24 04:24:42;;;;;;;2.60;2.20;;;24.60;59.10;;;;;;5006282;28;96969;-59
2021/11/24 04:30:12;;;;;;;3.85;2.63;;;24.60;58.60;;;;;;5003930;28;95775;-63
2021/11/24 04:32:45;;;;;;;2.72;2.50;;;24.50;58.20;;;;;;5004877;28;95673;-58
2021/11/24 04:35:16;;;;;;;7.78;2.75;;;24.60;57.90;;;;;;4993615;28;96720;-63
2021/11/24 04:37:48;;;;;;;3.35;2.28;;;24.50;57.70;;;;;;4986349;28;99324;-58
2021/11/24 04:40:20;;;;;;;4.82;2.85;;;24.50;57.40;;;;;;5003685;28;95866;-60
2021/11/24 04:42:54;;;;;;;;;;;24.40;57.00;;;;;;4987806;28;95780;-51
2021/11/24 04:45:27;;;;;;;2.88;2.35;;;24.40;57.10;;;;;;5005073;28;96046;-56
2021/11/24 04:47:58;;;;;;;4.93;2.63;;;24.40;57.10;;;;;;5001804;28;96657;-60
2021/11/24 04:50:31;;;;;;;3.28;2.10;;;24.40;57.30;;;;;;5004653;28;95356;-63
2021/11/24 04:53:02;;;;;;;2.65;1.90;;;24.40;57.00;;;;;;5005773;28;95798;-58
2021/11/24 04:55:33;;;;;;;;;;;24.50;56.60;;;;;;5000141;28;97352;-61
2021/11/24 04:58:03;;;;;;;2.63;2.27;;;24.50;56.70;;;;;;5000431;28;95796;-55
2021/11/24 05:00:34;;;;;;;3.70;1.48;;;24.50;56.70;;;;;;5002905;28;98357;-58
2021/11/24 05:03:05;;;;;;;3.90;2.25;;;24.50;55.70;;;;;;5002822;28;95819;-58
2021/11/24 05:05:38;;;;;;;2.97;1.98;;;24.50;56.20;;;;;;5003381;28;95984;-61
2021/11/24 05:08:14;;;;;;;3.30;2.33;;;24.40;56.00;;;;;;4995709;28;96237;-59
2021/11/24 05:10:48;;;;;;;2.50;2.03;;;24.40;56.10;;;;;;4987712;28;95875;-54
2021/11/24 05:13:19;;;;;;;3.85;1.90;;;24.40;56.20;;;;;;4994983;28;95889;-53
2021/11/24 05:15:54;;;;;;;1.92;1.75;;;24.40;55.60;;;;;;4996178;28;96526;-58
2021/11/24 05:18:44;;;;;;;3.00;2.28;;;24.40;55.60;;;;;;5000344;28;96055;-59
2021/11/24 05:21:54;;;;;;;3.05;1.90;;;24.40;55.80;;;;;;5003074;28;95575;-64
2021/11/24 05:24:17;;;;;;;4.45;2.20;;;24.30;55.30;;;;;;4975806;28;96000;-61
2021/11/24 05:26:50;;;;;;;5.60;2.45;;;24.30;55.10;;;;;;4999048;28;97772;-56
2021/11/24 05:29:23;;;;;;;3.53;2.13;;;24.30;55.30;;;;;;4999712;28;95700;-61
2021/11/24 05:31:55;;;;;;;3.83;2.08;;;24.30;55.20;;;;;;5002853;28;95656;-63
2021/11/24 05:34:25;;;;;;;3.67;1.80;;;24.30;55.00;;;;;;5000593;28;95790;-61
2021/11/24 05:37:00;;;;;;;2.90;2.00;;;24.30;55.00;;;;;;4977450;28;101035;-62
2021/11/24 05:39:36;;;;;;;2.28;2.08;;;24.20;55.10;;;;;;4999943;28;96166;-56
2021/11/24 05:42:08;;;;;;;3.63;1.88;;;24.10;54.80;;;;;;5001564;28;95731;-60
2021/11/24 05:44:40;;;;;;;5.03;2.22;;;24.00;54.90;;;;;;5007035;28;95749;-61
2021/11/24 05:47:22;;;;;;;3.20;1.67;;;23.90;55.00;;;;;;5005383;28;95908;-61
2021/11/24 05:50:12;;;;;;;2.30;1.80;;;23.90;55.00;;;;;;4990623;28;95621;-60
2021/11/24 05:52:44;;;;;;;1.80;1.65;;;23.80;55.20;;;;;;5005422;28;95871;-59
2021/11/24 05:55:14;;;;;;;1.95;1.67;;;23.90;55.60;;;;;;5004166;28;96370;-53
2021/11/24 05:57:44;;;;;;;3.58;1.55;;;23.90;55.30;;;;;;5001310;28;96468;-56
2021/11/24 06:00:17;;;;;;;2.30;1.63;;;23.80;55.10;;;;;;5006084;28;96082;-58
2021/11/24 06:02:48;;;;;;;2.08;1.83;;;23.80;55.40;;;;;;5005448;28;95371;-57
2021/11/24 06:05:20;;;;;;;1.75;1.55;;;23.70;55.20;;;;;;4995096;28;95790;-58
2021/11/24 06:07:52;;;;;;;4.18;1.55;;;23.70;55.20;;;;;;4998664;28;96431;-56
2021/11/24 06:10:24;;;;;;;2.75;1.52;;;23.60;55.10;;;;;;4996824;28;97662;-56
2021/11/24 06:12:56;;;;;;;1.80;1.48;;;23.60;55.10;;;;;;4997847;27;95968;-55
2021/11/24 06:15:29;;;;;;;1.70;1.30;;;23.50;55.10;;;;;;4998870;28;96042;-55
2021/11/24 06:18:01;;;;;;;2.80;1.70;;;23.50;55.00;;;;;;4998520;28;96155;-58
2021/11/24 06:20:32;;;;;;;3.35;1.42;;;23.40;55.20;;;;;;4998843;28;95725;-56
2021/11/24 06:23:08;;;;;;;1.92;1.55;;;23.40;55.40;;;;;;4982914;28;96042;-57
2021/11/24 06:25:39;;;;;;;1.63;1.50;;;23.40;55.80;;;;;;4987098;28;96590;-58
2021/11/24 06:28:12;;;;;;;2.00;1.63;;;23.40;56.10;;;;;;4995437;28;96235;-58
2021/11/24 06:30:44;;;;;;;2.53;1.67;;;23.40;56.40;;;;;;5010714;28;95817;-57
2021/11/24 06:33:18;;;;;;;2.60;1.65;;;23.50;56.70;;;;;;4999067;28;95793;-54
2021/11/24 06:35:49;;;;;;;2.08;1.55;;;23.70;56.70;;;;;;4994662;28;95980;-50
2021/11/24 06:38:23;;;;;;;2.97;2.03;;;23.80;56.60;;;;;;4992975;28;96749;-55
2021/11/24 06:40:55;;;;;;;5.45;1.92;;;23.90;56.90;;;;;;5006561;28;95870;-59
2021/11/24 06:43:25;;;;;;;2.72;1.80;;;23.90;56.10;;;;;;4998468;28;95359;-60
2021/11/24 06:45:56;;;;;;;1.77;1.40;;;23.90;56.00;;;;;;5002075;28;95979;-61
2021/11/24 06:48:27;;;;;;;3.83;1.90;;;23.80;55.70;;;;;;5005684;28;96053;-62
2021/11/24 06:50:58;;;;;;;;;;;23.60;55.70;;;;;;5007239;28;96445;-62
2021/11/24 06:53:30;;;;;;;2.75;1.92;;;23.50;55.80;;;;;;5009278;28;95877;-62
2021/11/24 06:56:02;;;;;;;2.28;1.80;;;23.40;55.70;;;;;;5011960;28;95365;-61
2021/11/24 06:58:32;;;;;;;2.05;1.65;;;23.40;55.70;;;;;;5009369;28;96529;-61
2021/11/24 07:01:02;;;;;;;2.10;1.30;;;23.40;55.60;;;;;;5007668;28;95638;-63
2021/11/24 07:03:38;;;;;;;2.15;1.50;;;23.30;55.40;;;;;;5005990;28;95891;-62
2021/11/24 07:06:10;;;;;;;5.05;2.22;;;23.30;55.50;;;;;;5002582;28;96445;-62
2021/11/24 07:08:44;;;;;;;2.97;1.70;;;23.30;55.70;;;;;;5007038;28;96054;-61
2021/11/24 07:11:14;;;;;;;1.98;1.70;;;23.20;56.40;;;;;;5002007;28;96256;-61
2021/11/24 07:13:49;;;;;;;1.73;1.33;;;23.20;57.00;;;;;;5009519;28;98057;-61
2021/11/24 07:16:22;;;;;;;2.35;1.65;;;23.20;57.40;;;;;;5009463;28;95509;-61
2021/11/24 07:18:53;;;;;;;1.52;1.42;;;23.20;57.50;;;;;;5005125;28;97093;-61
2021/11/24 07:21:23;;;;;;;1.35;1.25;;;23.20;57.80;;;;;;5004046;28;95670;-59
2021/11/24 07:23:55;;;;;;;1.97;1.30;;;23.20;58.00;;;;;;5007204;28;96000;-60
2021/11/24 07:26:27;;;;;;;2.35;1.55;;;23.10;58.10;;;;;;5005523;28;95453;-62
2021/11/24 07:29:03;;;;;;;1.52;1.42;;;23.10;58.50;;;;;;5003835;28;96006;-63
2021/11/24 07:31:35;;;;;;;2.00;1.35;;;23.10;59.30;;;;;;5006615;28;96164;-63
2021/11/24 07:34:05;;;;;;;1.60;1.50;;;23.10;60.10;;;;;;4995890;28;96128;-61
2021/11/24 07:36:37;;;;;;;1.30;1.20;;;23.10;61.00;;;;;;4988709;28;96043;-63
2021/11/24 07:39:11;;;;;;;2.47;1.50;;;23.10;61.70;;;;;;4998525;28;96365;-62
2021/11/24 07:41:42;;;;;;;3.83;1.83;;;23.10;62.20;;;;;;5005837;28;96302;-62
2021/11/24 07:44:12;;;;;;;1.47;1.37;;;23.10;62.80;;;;;;5014342;28;96109;-64
2021/11/24 07:46:42;;;;;;;2.63;1.83;;;23.10;63.40;;;;;;5007100;28;95930;-63
2021/11/24 07:49:13;;;;;;;2.67;1.33;;;23.10;64.00;;;;;;5000244;28;96516;-63
2021/11/24 07:51:46;;;;;;;3.22;1.70;;;23.10;65.10;;;;;;5009061;28;96034;-63
2021/11/24 07:54:16;;;;;;;2.17;1.65;;;23.00;64.80;;;;;;5007097;28;95714;-64
2021/11/24 07:56:47;;;;;;;4.03;1.80;;;23.10;65.30;;;;;;5006306;28;95817;-64
2021/11/24 07:59:17;;;;;;;1.77;1.47;;;23.00;65.90;;;;;;5004139;28;96209;-64
2021/11/24 08:01:50;;;;;;;1.77;1.58;;;23.10;66.30;;;;;;5005548;28;96802;-64
2021/11/24 08:04:22;;;;;;;1.60;1.50;;;23.00;66.20;;;;;;4986296;28;95767;-63
2021/11/24 08:06:54;;;;;;;2.20;1.52;;;23.00;66.90;;;;;;5003247;28;95606;-62
2021/11/24 08:09:24;;;;;;;2.00;1.45;;;23.00;67.30;;;;;;5006585;28;96465;-62
2021/11/24 08:11:55;;;;;;;1.50;1.30;;;23.00;67.50;;;;;;5004055;28;95572;-63
2021/11/24 08:14:28;;;;;;;2.15;1.50;;;23.00;67.80;;;;;;5006501;28;95274;-62
2021/11/24 08:17:03;;;;;;;1.25;1.15;;;23.00;68.00;;;;;;4995375;28;95812;-62
2021/11/24 08:19:36;;;;;;;3.40;1.42;;;22.90;67.60;;;;;;4995646;28;96394;-63
2021/11/24 08:22:07;;;;;;;1.40;1.30;;;22.90;67.20;;;;;;4987367;28;97004;-63
2021/11/24 08:24:39;;;;;;;;;;;22.90;66.90;;;;;;4993744;28;95877;-62
2021/11/24 08:27:11;;;;;;;;;;;22.90;66.70;;;;;;5007006;28;96000;-61
2021/11/24 08:29:44;;;;;;;1.65;1.40;;;22.80;66.80;;;;;;5007496;28;95997;-62
2021/11/24 08:32:15;;;;;;;1.50;1.40;;;22.80;66.60;;;;;;5001324;28;95775;-62
2021/11/24 08:34:47;;;;;;;2.35;1.30;;;22.80;66.30;;;;;;4998328;28;95753;-62
2021/11/24 08:37:19;;;;;;;2.28;1.38;;;22.80;66.20;;;;;;4986666;28;99901;-62
2021/11/24 08:39:51;;;;;;;1.95;1.67;;;22.70;65.90;;;;;;5006146;28;95982;-62
2021/11/24 08:42:26;;;;;;;2.80;1.42;;;22.70;65.70;;;;;;4998955;28;96012;-63
2021/11/24 08:44:56;;;;;;;2.60;1.48;;;22.70;65.50;;;;;;5001852;28;95945;-62
2021/11/24 08:47:27;;;;;;;1.83;1.40;;;22.60;65.10;;;;;;4984935;28;95577;-62
2021/11/24 08:50:05;;;;;;;1.63;1.52;;;22.60;65.10;;;;;;5009292;28;96622;-62
2021/11/24 08:52:36;;;;;;;1.50;1.40;;;22.60;65.40;;;;;;5007729;28;95787;-62
2021/11/24 08:55:09;;;;;;;1.90;1.40;;;22.60;65.50;;;;;;5009389;28;95230;-61
2021/11/24 08:57:42;;;;;;;3.03;1.48;;;22.60;65.80;;;;;;4998127;28;95729;-61
2021/11/24 09:00:14;;;;;;;2.17;1.58;;;22.50;65.90;;;;;;5007214;28;95928;-61
2021/11/24 09:02:45;;;;;;;2.25;1.40;;;22.50;65.80;;;;;;5007160;28;96393;-61
2021/11/24 09:05:17;;;;;;;1.60;1.50;;;22.40;65.60;;;;;;5000545;28;95652;-60
2021/11/24 09:07:50;;;;;;;2.03;1.58;;;22.40;65.50;;;;;;5008962;28;95841;-61
2021/11/24 09:10:22;;;;;;;1.40;1.30;;;22.40;65.60;;;;;;4987784;28;95977;-61
2021/11/24 09:12:54;;;;;;;1.52;1.30;;;22.30;66.50;;;;;;5006937;28;96040;-60
2021/11/24 09:15:28;;;;;;;2.47;1.40;;;22.30;66.10;;;;;;5011320;28;95261;-60
2021/11/24 09:18:16;;;;;;;2.25;2.05;;;22.30;66.50;;;;;;5004880;28;95778;-60
2021/11/24 09:20:48;;;;;;;1.45;1.35;;;22.30;66.60;;;;;;5002521;28;96658;-61
2021/11/24 09:23:19;;;;;;;;;;;22.20;66.80;;;;;;5009098;28;95788;-59
2021/11/24 09:26:02;;;;;;;1.70;1.60;;;22.20;67.00;;;;;;5010804;28;95858;-60
2021/11/24 09:28:37;;;;;;;1.65;1.30;;;22.20;67.30;;;;;;5008617;28;95322;-59
2021/11/24 09:31:08;;;;;;;1.50;1.38;;;22.20;67.40;;;;;;5008896;28;96006;-60
2021/11/24 09:33:41;;;;;;;1.80;1.70;;;22.20;67.50;;;;;;5005001;28;96386;-60
2021/11/24 09:36:13;;;;;;;1.45;1.35;;;22.20;68.00;;;;;;4994474;28;96966;-61
2021/11/24 09:38:44;;;;;;;1.67;1.30;;;22.20;68.40;;;;;;4989439;28;96178;-60
2021/11/24 09:41:19;;;;;;;1.17;1.17;;;22.20;68.60;;;;;;4993483;28;96335;-62
2021/11/24 09:43:52;;;;;;;3.72;1.63;;;22.20;68.70;;;;;;5009616;28;95802;-61
2021/11/24 09:46:25;;;;;;;1.38;1.27;;;22.10;68.70;;;;;;5008497;28;96707;-61
2021/11/24 09:48:59;;;;;;;1.75;1.55;;;22.10;68.90;;;;;;5005617;28;95297;-62
2021/11/24 09:51:36;;;;;;;1.50;1.40;;;22.10;69.20;;;;;;5011996;28;96978;-61
2021/11/24 09:54:09;;;;;;;2.13;1.33;;;22.10;69.40;;;;;;5015400;28;95873;-63
2021/11/24 09:56:41;;;;;;;1.95;1.45;;;22.00;69.50;;;;;;5011723;28;95843;-62
2021/11/24 09:59:18;;;;;;;1.27;1.17;;;22.00;69.70;;;;;;5012691;28;95738;-61
2021/11/24 10:01:50;;;;;;;2.42;1.58;;;22.00;69.90;;;;;;5007844;28;97028;-62
2021/11/24 10:04:25;;;;;;;0.93;0.93;;;22.00;70.00;;;;;;4992231;28;96188;-61
2021/11/24 10:06:58;;;;;;;1.75;1.30;;;22.00;70.10;;;;;;5013919;28;98030;-63
2021/11/24 10:09:28;;;;;;;1.10;1.00;;;22.00;70.20;;;;;;5000533;28;97833;-61
2021/11/24 10:11:58;;;;;;;3.47;1.30;;;21.90;70.20;;;;;;4996043;28;95931;-59
2021/11/24 10:14:30;;;;;;;1.38;1.27;;;21.90;70.20;;;;;;5008145;28;95805;-61
2021/11/24 10:17:12;;;;;;;1.20;1.10;;;21.90;70.40;;;;;;5015387;28;95588;-61
2021/11/24 10:20:10;;;;;;;2.42;1.10;;;21.90;71.20;;;;;;5011658;28;95724;-60
2021/11/24 10:22:42;;;;;;;3.90;1.33;;;21.90;70.50;;;;;;5023567;28;96331;-61
2021/11/24 10:25:16;;;;;;;1.52;1.25;;;21.80;70.60;;;;;;5007160;28;95843;-61
2021/11/24 10:27:52;;;;;;;1.65;1.20;;;21.80;70.70;;;;;;5008731;28;95982;-60
2021/11/24 10:30:33;;;;;;;1.98;1.30;;;21.80;70.90;;;;;;5011226;28;95522;-63
2021/11/24 10:33:19;;;;;;;1.30;1.10;;;21.70;70.90;;;;;;5005575;28;96561;-62
2021/11/24 10:36:06;;;;;;;1.80;1.55;;;21.70;71.00;;;;;;4997824;28;96009;-62
2021/11/24 10:38:44;;;;;;;1.27;1.17;;;21.70;71.10;;;;;;4981286;28;95930;-61
2021/11/24 10:41:30;;;;;;;1.30;1.20;;;21.70;71.20;;;;;;5004897;28;95271;-62
2021/11/24 10:44:38;;;;;;;1.67;1.27;;;21.70;71.20;;;;;;5007697;28;96024;-61
2021/11/24 10:47:11;;;;;;;1.73;1.30;;;21.60;71.20;;;;;;4998712;28;96078;-62
2021/11/24 10:49:52;;;;;;;1.83;1.60;;;21.60;71.20;;;;;;5009147;28;95713;-62
2021/11/24 10:52:38;;;;;;;1.77;1.20;;;21.60;71.20;;;;;;5003705;28;95569;-62
2021/11/24 10:55:21;;;;;;;2.17;1.40;;;21.60;71.20;;;;;;4998927;28;96489;-62
2021/11/24 10:58:04;;;;;;;1.55;1.30;;;21.50;71.00;;;;;;5007974;28;95953;-64
2021/11/24 11:00:51;;;;;;;1.00;0.93;;;21.50;71.00;;;;;;5009383;28;95828;-62
2021/11/24 11:03:43;;;;;;;2.45;1.30;;;21.50;71.10;;;;;;5008591;28;95914;-63
2021/11/24 11:06:29;;;;;;;3.17;1.50;;;21.50;71.20;;;;;;5001050;28;97357;-62
2021/11/24 11:09:00;;;;;;;3.30;1.40;;;21.50;71.20;;;;;;5008845;28;95950;-62
2021/11/24 11:11:36;;;;;;;3.38;2.80;;;21.40;71.30;;;;;;5010889;28;97149;-64
2021/11/24 11:14:25;;;;;;;1.10;1.00;;;21.40;71.40;;;;;;5000312;28;97946;-63
2021/11/24 11:16:58;;;;;;;2.25;1.13;;;21.40;71.50;;;;;;5007649;28;96181;-63
2021/11/24 11:19:53;;;;;;;1.10;1.10;;;21.40;71.60;;;;;;5000750;28;96827;-62
2021/11/24 11:22:36;;;;;;;1.70;1.30;;;21.40;71.70;;;;;;5006807;28;95222;-63
2021/11/24 11:25:36;;;;;;;1.92;1.30;;;21.40;71.70;;;;;;4985776;28;95537;-64
2021/11/24 11:28:09;;;;;;;2.53;1.30;;;21.30;71.80;;;;;;5006180;28;97272;-62
2021/11/24 11:30:43;;;;;;;1.35;1.17;;;21.30;71.40;;;;;;5007598;28;95876;-62
2021/11/24 11:33:19;;;;;;;1.55;1.00;;;21.30;71.90;;;;;;5007100;28;95744;-63
2021/11/24 11:35:56;;;;;;;2.75;1.45;;;21.30;71.90;;;;;;4991125;28;95807;-62
2021/11/24 11:38:30;;;;;;;2.05;1.15;;;21.30;71.90;;;;;;4992751;28;96585;-62
2021/11/24 11:41:03;;;;;;;1.42;1.25;;;21.30;71.90;;;;;;5008528;28;95901;-62
2021/11/24 11:43:54;;;;;;;2.15;1.23;;;21.20;71.90;;;;;;5006044;28;95535;-62
2021/11/24 11:46:49;;;;;;;2.35;1.10;;;21.30;72.00;;;;;;5010248;28;95318;-63
2021/11/24 11:49:23;;;;;;;2.60;0.90;;;21.20;72.20;;;;;;5008638;28;96977;-62
2021/11/24 11:52:12;;;;;;;1.30;1.20;;;21.20;72.30;;;;;;5005706;28;96310;-62
2021/11/24 11:54:42;;;;;;;1.85;1.30;;;21.20;72.30;;;;;;5005789;28;95974;-61
2021/11/24 11:57:19;;;;;;;3.93;1.53;;;21.20;72.40;;;;;;5011637;28;95401;-61
2021/11/24 12:00:06;;;;;;;3.85;1.00;;;21.10;72.40;;;;;;5010409;28;96796;-62
2021/11/24 12:02:52;;;;;;;1.10;1.10;;;21.10;72.50;;;;;;5008682;28;95958;-62
2021/11/24 12:05:24;;;;;;;5.80;1.10;;;21.10;72.50;;;;;;5008046;28;95598;-60
2021/11/24 12:08:10;;;;;;;;;;;21.10;72.40;;;;;;5009578;28;95559;-60
2021/11/24 12:11:00;;;;;;;2.22;1.00;;;21.10;72.40;;;;;;5014127;27;95537;-61
2021/11/24 12:13:35;;;;;;;2.20;1.20;;;21.10;72.50;;;;;;5012455;28;96259;-62
2021/11/24 12:16:43;;;;;;;1.55;1.35;;;21.00;72.60;;;;;;5011611;28;95412;-62
2021/11/24 12:19:18;;;;;;;2.22;1.30;;;21.00;72.60;;;;;;5004525;28;95653;-63
2021/11/24 12:21:52;;;;;;;2.65;1.60;;;21.00;72.80;;;;;;5006609;28;96653;-62
2021/11/24 12:24:41;;;;;;;1.00;1.00;;;21.00;72.80;;;;;;5011786;28;95839;-62
2021/11/24 12:27:14;;;;;;;1.27;1.15;;;21.00;72.90;;;;;;5011236;28;95715;-63
2021/11/24 12:29:50;;;;;;;0.98;0.88;;;21.00;72.90;;;;;;4999911;28;96008;-63
2021/11/24 12:32:25;;;;;;;1.00;1.00;;;21.00;72.90;;;;;;5004037;28;98059;-62
2021/11/24 12:34:58;;;;;;;2.45;1.25;;;21.00;73.00;;;;;;5001448;28;96107;-61
2021/11/24 12:37:30;;;;;;;1.05;0.95;;;21.00;73.00;;;;;;4991275;28;96126;-60
2021/11/24 12:40:01;;;;;;;1.33;1.20;;;20.90;72.90;;;;;;5007882;28;95897;-60
2021/11/24 12:42:34;;;;;;;2.28;1.17;;;21.00;73.10;;;;;;4991302;28;96045;-61
2021/11/24 12:45:06;;;;;;;1.63;1.20;;;20.90;73.10;;;;;;5001197;28;95527;-62
2021/11/24 12:47:38;;;;;;;2.28;1.17;;;20.90;73.10;;;;;;5010218;28;97448;-61
2021/11/24 12:50:10;;;;;;;1.15;1.05;;;21.00;73.20;;;;;;5002861;28;96041;-61
2021/11/24 12:52:58;;;;;;;1.38;1.20;;;21.00;73.50;;;;;;5011252;28;96065;-60
2021/11/24 12:55:33;;;;;;;2.20;1.23;;;20.90;73.60;;;;;;5007269;28;95823;-60
2021/11/24 12:58:39;;;;;;;1.83;1.30;;;21.00;73.70;;;;;;5008073;28;96044;-60
2021/11/24 13:01:31;;;;;;;1.70;1.20;;;20.90;73.80;;;;;;4943059;28;95832;-61
2021/11/24 13:04:12;;;;;;;3.13;1.35;;;20.90;73.90;;;;;;4944905;28;97675;-59
2021/11/24 13:06:47;;;;;;;2.78;1.50;;;20.90;74.00;;;;;;4944238;28;95961;-60
2021/11/24 13:09:19;;;;;;;3.22;1.30;;;20.90;74.00;;;;;;4944126;28;95895;-61
2021/11/24 13:12:04;;;;;;;4.07;1.90;;;20.90;74.00;;;;;;4941547;28;95956;-60
2021/11/24 13:14:45;;;;;;;3.42;1.10;;;20.80;74.10;;;;;;4944269;28;97016;-62
2021/11/24 13:17:43;;;;;;;3.33;1.58;;;20.90;74.20;;;;;;4940860;28;96321;-56
2021/11/24 13:20:17;;;;;;;2.10;1.35;;;20.80;74.10;;;;;;4933033;28;95841;-59
2021/11/24 13:22:56;;;;;;;1.48;1.10;;;20.90;73.90;;;;;;4918679;28;95945;-59
2021/11/24 13:25:35;;;;;;;2.17;1.20;;;21.00;73.60;;;;;;4943941;28;96232;-58
2021/11/24 13:28:20;;;;;;;1.48;1.10;;;21.00;73.50;;;;;;4937781;28;96769;-60
2021/11/24 13:30:53;;;;;;;1.85;1.63;;;21.00;73.40;;;;;;4945174;28;96494;-59